ADDS METAR Data INFO
IDs: Format: Raw Decoded Include TAF

Data at: 1152 UTC 23 Jun 2018

KSFM 231056Z AUTO 00000KT 10SM -RA FEW030 SCT037 SCT044 12/12 A3004 RMK AO2 RAB27 SLP174 P0001 T01170117
KSFM 230956Z AUTO 00000KT 10SM CLR 11/10 A3003 RMK AO2 SLP174 T01060100
KSFM 230856Z AUTO 00000KT 10SM CLR 11/09 A3004 RMK AO2 SLP177 T01060094 56008
KSFM 230756Z AUTO 00000KT 10SM CLR 10/09 A3005 RMK AO2 SLP178 T01000094
KSFM 230656Z AUTO 00000KT 10SM CLR 09/09 A3005 RMK AO2 SLP180 T00940089
KSFM 230556Z AUTO 00000KT 10SM CLR 10/09 A3007 RMK AO2 SLP185 T01000089 10172 20100 51000
KSFM 230456Z AUTO 00000KT 10SM CLR 12/10 A3007 RMK AO2 SLP185 T01220100
KSFM 230356Z AUTO 21003KT 10SM CLR 12/11 A3007 RMK AO2 SLP187 T01170106 402220050
KSFM 230256Z AUTO 00000KT 10SM CLR 13/11 A3007 RMK AO2 SLP185 T01330106 50002
KSFM 230156Z AUTO 00000KT 10SM CLR 13/11 A3008 RMK AO2 SLP188 T01280106
KSFM 230056Z AUTO 00000KT 10SM CLR 14/11 A3006 RMK AO2 SLP183 T01440111
KSFM 222356Z AUTO VRB03KT 10SM CLR 17/09 A3006 RMK AO2 SLP182 T01720094 10222 20172 53004
KSFM 222256Z AUTO 17003KT 10SM CLR 18/09 A3005 RMK AO2 SLP180 T01830094
KSFM 222156Z AUTO 00000KT 10SM CLR 20/09 A3004 RMK AO2 SLP177 T02000094
KSFM 222056Z AUTO VRB06KT 10SM CLR 21/11 A3005 RMK AO2 SLP178 T02110106 58006
KSFM 221956Z AUTO VRB05KT 10SM CLR 21/11 A3005 RMK AO2 SLP180 T02110111
KSFM 221856Z AUTO VRB06KT 10SM CLR 22/12 A3006 RMK AO2 SLP182 T02220122
KSFM 221756Z AUTO 12009KT 10SM CLR 22/13 A3007 RMK AO2 SLP183 T02170133 10217 20161 58006
KSFM 221656Z AUTO 12008KT 10SM CLR 21/12 A3008 RMK AO2 SLP188 T02110117
KSFM 221556Z AUTO 13007KT 110V180 10SM CLR 21/11 A3008 RMK AO2 SLP189 T02110111
KSFM 221456Z AUTO 05007KT 10SM CLR 20/08 A3008 RMK AO2 SLP190 T02000083 50003
KSFM 221356Z AUTO 05006KT 10SM CLR 19/09 A3009 RMK AO2 SLP192 T01890089
KSFM 221256Z AUTO 05006KT 10SM CLR 18/08 A3009 RMK AO2 SLP193 T01780078
KSFM 221156Z AUTO 05008KT 10SM CLR 16/07 A3007 RMK AO2 SLP186 6//// 7//// T01610072 10167 20050 51026
KSFM 221056Z AUTO 01006KT 10SM CLR 14/08 A3005 RMK AO2 SLP177 T01390078
KSFM 220956Z AUTO 00000KT 10SM CLR 08/07 A3002 RMK AO2 SLP169 T00780067
KSFM 220856Z AUTO 00000KT 10SM CLR 06/05 A3000 RMK AO2 SLP160 T00560050 51012
KSFM 220756Z AUTO 00000KT 10SM CLR 07/06 A2999 RMK AO2 SLP156 T00670061
KSFM 220656Z AUTO 00000KT 10SM CLR 07/07 A2997 RMK AO2 SLP154 T00720067
KSFM 220556Z AUTO 36007KT 10SM CLR 13/08 A2996 RMK AO2 SLP148 60001 T01280078 10183 20089 53006
KSFM 220456Z AUTO 34004KT 10SM CLR 12/09 A2996 RMK AO2 RAE07 SLP146 P0000 T01220089
KSFM 220403Z AUTO 00000KT 3SM -RA BR CLR 10/10 A2995 RMK AO2 P0000
KSFM 220400Z AUTO 00000KT 1 1/4SM -RA BR CLR 10/10 A2994 RMK AO2 VIS 1/2V5 P0000
KSFM 220356Z AUTO 00000KT 1/2SM -RA FG CLR 11/10 A2994 RMK AO2 RAB19 SLP143 P0001 T01060100 402500094 RVRNO
KSFM 220354Z AUTO 00000KT 1/2SM -RA FG CLR 10/09 A2994 RMK AO2 RAB19 P0001 402500094 RVRNO
KSFM 220346Z AUTO 00000KT 3/4SM -RA BR CLR 09/09 A2994 RMK AO2 RAB19 P0001 RVRNO
KSFM 220342Z AUTO 00000KT 1 3/4SM -RA BR CLR 11/10 A2994 RMK AO2 RAB19 P0001
KSFM 220330Z AUTO 00000KT 3SM -RA BR CLR 11/10 A2994 RMK AO2 RAB19 P0000
KSFM 220319Z AUTO 00000KT 1 3/4SM -RA BR CLR 11/11 A2994 RMK AO2 VIS 1/2V5 RAB19 P0000
KSFM 220258Z AUTO 00000KT 4SM BR CLR 11/11 A2993 RMK AO2
KSFM 220256Z AUTO 00000KT 1 3/4SM BR CLR 11/11 A2993 RMK AO2 VIS 1/4V5 SLP138 T01110106 51029
KSFM 220252Z AUTO 00000KT 1 3/4SM BR CLR 12/11 A2993 RMK AO2 VIS 1/4V5
KSFM 220156Z AUTO 00000KT 10SM FEW070 13/12 A2991 RMK AO2 SLP131 T01280122
KSFM 220056Z AUTO 04004KT 10SM FEW060 BKN080 16/14 A2988 RMK AO2 SLP121 T01560139
KSFM 212356Z AUTO 09004KT 10SM CLR 18/14 A2984 RMK AO2 SLP108 T01830139 10250 20183 53018